createdAt,value
2022-12-27T00:01:46.993Z,2.12
2022-12-27T00:04:48.885Z,2.09
2022-12-27T00:07:50.543Z,2.02
2022-12-27T00:10:53.546Z,2.02
2022-12-27T00:13:55.311Z,1.99
2022-12-27T00:16:57.076Z,2.01
2022-12-27T00:19:59.248Z,2.03
2022-12-27T00:23:01.117Z,2.00
2022-12-27T00:26:05.123Z,2.04
2022-12-27T00:29:06.823Z,2.07
2022-12-27T00:32:08.303Z,2.04
2022-12-27T00:35:10.404Z,2.08
2022-12-27T00:38:11.935Z,2.09
2022-12-27T00:41:15.256Z,2.16
2022-12-27T00:44:16.828Z,2.19
2022-12-27T00:47:18.383Z,2.22
2022-12-27T00:50:20.104Z,2.23
2022-12-27T00:53:21.693Z,2.24
2022-12-27T00:56:25.712Z,2.26
2022-12-27T00:59:27.318Z,2.14
2022-12-27T01:02:28.875Z,1.99
2022-12-27T01:05:30.902Z,1.93
2022-12-27T01:08:32.593Z,1.92
2022-12-27T01:11:35.883Z,1.96
2022-12-27T01:14:37.375Z,1.96
2022-12-27T01:17:38.949Z,2.00
2022-12-27T01:20:40.645Z,2.06
2022-12-27T01:23:43.226Z,2.06
2022-12-27T01:26:46.312Z,2.08
2022-12-27T01:29:47.913Z,2.15
2022-12-27T01:32:49.532Z,2.20
2022-12-27T01:35:51.261Z,2.18
2022-12-27T01:38:52.835Z,2.16
2022-12-27T01:42:14.183Z,2.26
2022-12-27T01:45:16.044Z,2.27
2022-12-27T01:48:19.348Z,2.26
2022-12-27T01:51:21.030Z,2.28
2022-12-27T01:54:22.878Z,2.32
2022-12-27T01:57:25.879Z,2.33
2022-12-27T02:00:27.500Z,2.32
2022-12-27T02:03:30.778Z,2.34
2022-12-27T02:06:33.068Z,2.36
2022-12-27T02:09:38.432Z,2.35
2022-12-27T02:12:41.447Z,2.33
2022-12-27T02:15:43.109Z,2.35
2022-12-27T02:18:45.140Z,2.32
2022-12-27T02:21:56.223Z,2.28
2022-12-27T02:25:10.562Z,2.29
2022-12-27T02:28:20.101Z,2.29
2022-12-27T02:31:29.566Z,2.30
2022-12-27T02:34:34.699Z,2.28
2022-12-27T02:37:39.066Z,2.30
2022-12-27T02:41:00.169Z,2.27
2022-12-27T02:44:20.179Z,2.30
2022-12-27T02:47:43.171Z,2.33
2022-12-27T02:51:11.308Z,2.32
2022-12-27T02:54:21.604Z,2.31
2022-12-27T02:57:29.771Z,2.30
2022-12-27T03:00:54.149Z,2.28
2022-12-27T03:04:05.444Z,2.30
2022-12-27T03:07:17.165Z,2.30
2022-12-27T03:10:44.945Z,2.37
2022-12-27T03:14:07.595Z,2.37
2022-12-27T03:17:11.582Z,2.38
2022-12-27T03:20:35.038Z,2.44
2022-12-27T03:23:57.418Z,2.46
2022-12-27T03:27:00.531Z,2.44
2022-12-27T03:30:23.032Z,2.48
2022-12-27T03:33:26.009Z,2.52
2022-12-27T03:36:47.435Z,2.50
2022-12-27T03:39:52.919Z,2.51
2022-12-27T03:43:11.136Z,2.57
2022-12-27T03:46:35.497Z,2.59
2022-12-27T03:49:41.293Z,2.58
2022-12-27T03:52:47.001Z,2.58
2022-12-27T03:55:49.072Z,2.56
2022-12-27T03:58:51.591Z,2.67
2022-12-27T04:01:53.331Z,2.66
2022-12-27T04:04:55.148Z,2.69
2022-12-27T04:08:16.322Z,2.68
2022-12-27T04:11:36.427Z,2.66
2022-12-27T04:14:56.867Z,2.69
2022-12-27T04:18:17.245Z,2.72
2022-12-27T04:21:37.558Z,2.73
2022-12-27T04:24:59.003Z,2.73
2022-12-27T04:28:19.181Z,2.73
2022-12-27T04:31:39.428Z,2.75
2022-12-27T04:34:44.188Z,2.78
2022-12-27T04:37:45.811Z,2.83
2022-12-27T04:41:06.969Z,2.83
2022-12-27T04:44:26.943Z,2.84
2022-12-27T04:47:47.563Z,2.85
2022-12-27T04:51:07.529Z,2.85
2022-12-27T04:54:33.571Z,2.86
2022-12-27T04:57:36.529Z,2.87
2022-12-27T05:00:57.382Z,2.87
2022-12-27T05:03:58.968Z,2.88
2022-12-27T05:07:20.561Z,2.89
2022-12-27T05:10:40.836Z,2.91
2022-12-27T05:14:16.657Z,2.92
2022-12-27T05:17:18.627Z,2.94
2022-12-27T05:20:20.494Z,2.95
2022-12-27T05:23:40.821Z,2.95
2022-12-27T05:26:42.470Z,2.97
2022-12-27T05:29:45.576Z,2.96
2022-12-27T05:32:47.099Z,2.96
2022-12-27T05:35:48.639Z,2.98
2022-12-27T05:38:50.324Z,2.95
2022-12-27T05:41:52.213Z,2.96
2022-12-27T05:44:55.204Z,2.96
2022-12-27T05:51:28.946Z,2.96
2022-12-27T05:54:30.505Z,2.96
2022-12-27T05:57:32.275Z,2.97
2022-12-27T06:00:35.719Z,2.95
2022-12-27T06:03:37.803Z,2.95
2022-12-27T06:06:40.068Z,2.95
2022-12-27T06:09:41.766Z,2.91
2022-12-27T06:12:43.261Z,2.92
2022-12-27T06:15:46.187Z,2.94
2022-12-27T06:18:47.737Z,2.95
2022-12-27T06:21:49.425Z,2.95
2022-12-27T06:24:51.051Z,2.95
2022-12-27T06:27:52.776Z,2.96
2022-12-27T06:30:57.974Z,2.95
2022-12-27T06:33:59.459Z,2.97
2022-12-27T06:37:01.058Z,2.95
2022-12-27T06:40:02.589Z,2.96
2022-12-27T06:43:04.203Z,2.96
2022-12-27T06:46:12.396Z,2.95
2022-12-27T06:49:20.015Z,2.96
2022-12-27T06:52:23.234Z,2.98
2022-12-27T06:55:24.859Z,2.98
2022-12-27T06:58:26.353Z,3.00
2022-12-27T07:01:29.358Z,3.01
2022-12-27T07:04:30.904Z,3.03
2022-12-27T07:07:32.556Z,3.03
2022-12-27T07:10:35.737Z,3.02
2022-12-27T07:13:38.936Z,3.03
2022-12-27T07:16:41.935Z,3.04
2022-12-27T07:19:43.481Z,3.04
2022-12-27T07:22:45.061Z,3.04
2022-12-27T07:25:46.606Z,3.06
2022-12-27T07:28:49.873Z,3.05
2022-12-27T07:31:52.887Z,3.09
2022-12-27T07:34:54.632Z,3.10
2022-12-27T07:37:56.211Z,3.11
2022-12-27T07:40:58.547Z,3.13
2022-12-27T07:44:00.070Z,3.15
2022-12-27T07:47:02.999Z,3.15
2022-12-27T07:50:04.830Z,3.17
2022-12-27T07:53:06.330Z,3.18
2022-12-27T07:56:12.635Z,3.17
2022-12-27T07:59:14.529Z,3.19
2022-12-27T08:02:17.729Z,3.21
2022-12-27T08:05:24.339Z,3.22
2022-12-27T08:08:36.341Z,3.24
2022-12-27T08:11:37.847Z,3.22
2022-12-27T08:14:39.417Z,3.22
2022-12-27T08:17:43.686Z,3.23
2022-12-27T08:20:45.199Z,3.24
2022-12-27T08:23:46.712Z,3.23
2022-12-27T08:26:48.574Z,3.24
2022-12-27T08:29:50.351Z,3.26
2022-12-27T08:32:53.239Z,3.26
2022-12-27T08:35:57.084Z,3.23
2022-12-27T08:38:58.839Z,3.26
2022-12-27T08:42:00.394Z,3.27
2022-12-27T08:45:02.012Z,3.25
2022-12-27T08:48:05.345Z,3.27
2022-12-27T08:51:12.581Z,3.28
2022-12-27T08:54:16.318Z,3.29
2022-12-27T08:57:17.951Z,3.29
2022-12-27T09:00:19.627Z,3.29
2022-12-27T09:03:22.616Z,3.30
2022-12-27T09:06:24.815Z,3.28
2022-12-27T09:09:26.371Z,3.30
2022-12-27T09:12:28.052Z,3.32
2022-12-27T09:15:29.801Z,3.32
2022-12-27T09:18:32.782Z,3.33
2022-12-27T09:21:34.444Z,3.32
2022-12-27T09:24:35.995Z,3.35
2022-12-27T09:27:38.188Z,3.36
2022-12-27T09:30:41.117Z,3.35
2022-12-27T09:33:44.070Z,3.38
2022-12-27T09:36:45.638Z,3.38
2022-12-27T09:39:47.246Z,3.38
2022-12-27T09:43:09.459Z,3.37
2022-12-27T09:46:18.418Z,3.39
2022-12-27T09:49:25.412Z,3.42
2022-12-27T09:52:28.080Z,3.45
2022-12-27T09:55:37.142Z,3.46
2022-12-27T09:58:43.034Z,3.48
2022-12-27T10:01:44.871Z,3.46
2022-12-27T10:05:18.710Z,3.45
2022-12-27T10:08:17.676Z,3.44
2022-12-27T10:11:36.993Z,3.44
2022-12-27T10:14:47.293Z,3.47
2022-12-27T10:17:54.578Z,3.49
2022-12-27T10:21:02.059Z,3.49
2022-12-27T10:24:11.965Z,3.52
2022-12-27T10:27:14.673Z,3.53
2022-12-27T10:30:17.714Z,3.53
2022-12-27T10:33:20.470Z,3.55
2022-12-27T10:36:25.852Z,3.56
2022-12-27T10:39:29.035Z,3.57
2022-12-27T10:42:34.028Z,3.64
2022-12-27T10:45:39.122Z,3.66
2022-12-27T10:49:18.908Z,3.67
2022-12-27T10:52:09.112Z,3.65
2022-12-27T10:55:30.524Z,3.68
2022-12-27T10:58:37.345Z,3.67
2022-12-27T11:01:39.310Z,3.68
2022-12-27T11:04:55.025Z,3.67
2022-12-27T11:08:01.291Z,3.70
2022-12-27T11:11:11.933Z,3.73
2022-12-27T11:14:16.837Z,3.73
2022-12-27T11:17:19.173Z,3.74
2022-12-27T11:20:22.417Z,3.76
2022-12-27T11:23:29.596Z,3.80
2022-12-27T11:26:33.732Z,3.82
2022-12-27T11:29:35.566Z,3.80
2022-12-27T11:32:37.440Z,3.77
2022-12-27T11:35:46.394Z,3.78
2022-12-27T11:38:49.885Z,3.79
2022-12-27T11:41:54.931Z,3.83
2022-12-27T11:45:04.245Z,3.81
2022-12-27T11:48:11.128Z,3.79
2022-12-27T11:51:30.550Z,3.79
2022-12-27T11:54:39.279Z,3.81
2022-12-27T11:57:54.172Z,3.79
2022-12-27T12:01:03.663Z,3.79
2022-12-27T12:04:13.811Z,3.87
2022-12-27T12:07:20.296Z,3.86
2022-12-27T12:10:30.106Z,3.89
2022-12-27T12:13:44.288Z,3.92
2022-12-27T12:17:04.949Z,3.94
2022-12-27T12:20:16.059Z,4.00
2022-12-27T12:23:27.823Z,4.04
2022-12-27T12:26:35.189Z,4.11
2022-12-27T12:29:47.384Z,4.16
2022-12-27T12:32:59.499Z,4.18
2022-12-27T12:36:15.024Z,4.16
2022-12-27T12:39:22.471Z,4.14
2022-12-27T12:42:30.441Z,4.11
2022-12-27T12:45:38.742Z,4.11
2022-12-27T12:48:54.651Z,4.11
2022-12-27T12:52:03.396Z,4.12
2022-12-27T12:55:17.311Z,4.06
2022-12-27T12:58:28.818Z,4.06
2022-12-27T13:01:39.646Z,4.07
2022-12-27T13:04:55.442Z,4.05
2022-12-27T13:08:01.957Z,4.08
2022-12-27T13:11:22.450Z,4.09
2022-12-27T13:14:32.753Z,4.11
2022-12-27T13:17:39.169Z,4.09
2022-12-27T13:20:50.204Z,4.10
2022-12-27T13:23:59.033Z,4.11
2022-12-27T13:27:05.532Z,4.14
2022-12-27T13:30:16.628Z,4.17
2022-12-27T13:33:26.615Z,4.18
2022-12-27T13:36:32.484Z,4.19
2022-12-27T13:39:39.155Z,4.25
2022-12-27T13:42:47.083Z,4.27
2022-12-27T13:45:57.919Z,4.31
2022-12-27T13:49:08.530Z,4.34
2022-12-27T13:52:15.206Z,4.33
2022-12-27T13:55:28.090Z,4.32
2022-12-27T13:58:48.494Z,4.34
2022-12-27T14:02:00.971Z,4.38
2022-12-27T14:05:32.884Z,4.37
2022-12-27T14:08:55.021Z,4.40
2022-12-27T14:12:05.385Z,4.43
2022-12-27T14:15:08.172Z,4.42
2022-12-27T14:18:20.915Z,4.46
2022-12-27T14:21:35.260Z,4.47
2022-12-27T14:24:53.675Z,4.50
2022-12-27T14:28:12.194Z,4.52
2022-12-27T14:31:41.396Z,4.53
2022-12-27T14:35:09.242Z,4.53
2022-12-27T14:38:24.364Z,4.55
2022-12-27T14:41:44.740Z,4.52
2022-12-27T14:45:05.138Z,4.52
2022-12-27T14:48:24.586Z,4.52
2022-12-27T14:55:13.766Z,4.50
2022-12-27T14:58:36.555Z,4.49
2022-12-27T15:01:48.546Z,4.49
2022-12-27T15:04:58.463Z,4.50
2022-12-27T15:08:07.123Z,4.46
2022-12-27T15:11:21.750Z,4.49
2022-12-27T15:14:41.446Z,4.48
2022-12-27T15:17:50.800Z,4.47
2022-12-27T15:21:00.339Z,4.46
2022-12-27T15:24:07.259Z,4.43
2022-12-27T15:27:19.269Z,4.43
2022-12-27T15:30:24.575Z,4.41
2022-12-27T15:33:31.504Z,4.40
2022-12-27T15:36:37.360Z,4.40
2022-12-27T15:39:47.362Z,4.38
2022-12-27T15:42:54.103Z,4.35
2022-12-27T15:46:04.795Z,4.36
2022-12-27T15:49:15.054Z,4.34
2022-12-27T15:52:22.104Z,4.35
2022-12-27T15:55:34.604Z,4.34
2022-12-27T15:58:36.557Z,4.40
2022-12-27T16:01:39.228Z,4.44
2022-12-27T16:04:46.438Z,4.47
2022-12-27T16:07:50.148Z,4.50
2022-12-27T16:10:53.812Z,4.50
2022-12-27T16:14:15.370Z,4.49
2022-12-27T16:17:27.815Z,4.47
2022-12-27T16:20:30.064Z,4.46
2022-12-27T16:23:33.583Z,4.47
2022-12-27T16:26:45.617Z,4.46
2022-12-27T16:29:47.308Z,4.48
2022-12-27T16:32:49.194Z,4.51
2022-12-27T16:36:09.797Z,4.55
2022-12-27T16:39:32.524Z,4.55
2022-12-27T16:42:55.963Z,4.58
2022-12-27T16:46:05.571Z,4.57
2022-12-27T16:49:28.188Z,4.55
2022-12-27T16:52:44.440Z,4.53
2022-12-27T16:55:55.483Z,4.54
2022-12-27T16:58:58.415Z,4.55
2022-12-27T17:02:00.069Z,4.56
2022-12-27T17:05:01.997Z,4.62
2022-12-27T17:08:13.839Z,4.63
2022-12-27T17:11:25.525Z,4.66
2022-12-27T17:14:33.699Z,4.70
2022-12-27T17:17:36.128Z,4.72
2022-12-27T17:20:39.046Z,4.75
2022-12-27T17:23:41.603Z,4.79
2022-12-27T17:27:04.600Z,4.80
2022-12-27T17:30:12.571Z,4.81
2022-12-27T17:33:20.576Z,4.82
2022-12-27T17:36:28.267Z,4.83
2022-12-27T17:39:52.997Z,4.82
2022-12-27T17:43:18.911Z,4.80
2022-12-27T17:46:28.124Z,4.81
2022-12-27T17:49:31.198Z,4.85
2022-12-27T17:52:51.574Z,4.88
2022-12-27T17:56:18.948Z,4.89
2022-12-27T17:59:24.541Z,4.91
2022-12-27T18:02:29.672Z,4.92
2022-12-27T18:05:33.718Z,4.89
2022-12-27T18:08:36.191Z,4.89
2022-12-27T18:11:41.162Z,4.92
2022-12-27T18:14:43.389Z,4.93
2022-12-27T18:17:47.581Z,4.94
2022-12-27T18:20:54.163Z,4.95
2022-12-27T18:23:56.494Z,4.95
2022-12-27T18:27:03.173Z,5.02
2022-12-27T18:30:05.369Z,4.99
2022-12-27T18:33:10.729Z,5.03
2022-12-27T18:36:13.852Z,5.03
2022-12-27T18:39:23.644Z,5.04
2022-12-27T18:42:29.772Z,5.06
2022-12-27T18:45:33.340Z,5.08
2022-12-27T18:48:36.336Z,5.15
2022-12-27T18:51:38.641Z,5.13
2022-12-27T18:54:43.057Z,5.12
2022-12-27T18:57:45.042Z,5.06
2022-12-27T19:00:47.755Z,5.02
2022-12-27T19:04:05.283Z,4.95
2022-12-27T19:07:09.535Z,4.90
2022-12-27T19:10:15.974Z,4.86
2022-12-27T19:13:20.935Z,4.87
2022-12-27T19:16:24.486Z,4.82
2022-12-27T19:19:29.341Z,4.79
2022-12-27T19:22:34.210Z,4.76
2022-12-27T19:25:36.448Z,4.74
2022-12-27T19:28:38.034Z,4.73
2022-12-27T19:31:41.816Z,4.72
2022-12-27T19:34:45.949Z,4.74
2022-12-27T19:37:47.461Z,4.73
2022-12-27T19:40:50.884Z,4.74
2022-12-27T19:43:53.186Z,4.76
2022-12-27T19:46:54.790Z,4.77
2022-12-27T19:49:57.774Z,4.73
2022-12-27T19:52:59.800Z,4.66
2022-12-27T19:56:02.964Z,4.65
2022-12-27T19:59:04.681Z,4.59
2022-12-27T20:02:06.449Z,4.55
2022-12-27T20:05:10.255Z,4.50
2022-12-27T20:08:18.253Z,4.44
2022-12-27T20:11:21.259Z,4.39
2022-12-27T20:14:23.080Z,4.33
2022-12-27T20:17:24.634Z,4.29
2022-12-27T20:20:27.708Z,4.23
2022-12-27T20:23:29.290Z,4.20
2022-12-27T20:26:30.937Z,4.18
2022-12-27T20:29:32.602Z,4.12
2022-12-27T20:32:34.295Z,4.04
2022-12-27T20:35:37.235Z,3.99
2022-12-27T20:38:39.273Z,3.93
2022-12-27T20:41:40.872Z,3.87
2022-12-27T20:44:42.738Z,3.83
2022-12-27T20:47:44.864Z,3.76
2022-12-27T20:50:47.880Z,3.68
2022-12-27T20:53:54.593Z,3.66
2022-12-27T20:56:56.859Z,3.66
2022-12-27T20:59:58.371Z,3.61
2022-12-27T21:03:00.233Z,3.60
2022-12-27T21:06:06.839Z,3.53
2022-12-27T21:09:08.775Z,3.47
2022-12-27T21:12:10.863Z,3.46
2022-12-27T21:15:12.881Z,3.44
2022-12-27T21:18:15.356Z,3.41
2022-12-27T21:21:20.077Z,3.38
2022-12-27T21:24:24.035Z,3.37
2022-12-27T21:27:25.690Z,3.36
2022-12-27T21:30:27.353Z,3.36
2022-12-27T21:33:29.354Z,3.31
2022-12-27T21:36:35.090Z,3.28
2022-12-27T21:39:38.096Z,3.24
2022-12-27T21:42:39.691Z,3.20
2022-12-27T21:45:41.259Z,3.17
2022-12-27T21:48:43.502Z,3.11
2022-12-27T21:51:46.537Z,3.09
2022-12-27T21:54:52.097Z,3.07
2022-12-27T21:57:53.692Z,3.02
2022-12-27T22:01:03.642Z,3.01
2022-12-27T22:04:08.127Z,2.96
2022-12-27T22:07:11.360Z,2.94
2022-12-27T22:10:12.946Z,2.90
2022-12-27T22:13:14.640Z,2.88
2022-12-27T22:16:18.604Z,2.86
2022-12-27T22:19:20.219Z,2.83
2022-12-27T22:22:23.076Z,2.85
2022-12-27T22:25:24.649Z,2.88
2022-12-27T22:28:26.245Z,2.88
2022-12-27T22:31:30.360Z,2.88
2022-12-27T22:34:32.219Z,2.88
2022-12-27T22:37:35.285Z,2.85
2022-12-27T22:40:46.517Z,2.83
2022-12-27T22:43:49.831Z,2.80
2022-12-27T22:47:24.531Z,2.78
2022-12-27T22:50:12.909Z,2.76
2022-12-27T22:53:15.838Z,2.76
2022-12-27T22:56:18.363Z,2.74
2022-12-27T22:59:19.923Z,2.73
2022-12-27T23:02:21.582Z,2.74
2022-12-27T23:05:24.508Z,2.72
2022-12-27T23:08:29.114Z,2.72
2022-12-27T23:11:31.498Z,2.74
2022-12-27T23:14:33.010Z,2.73
2022-12-27T23:17:34.520Z,2.74
2022-12-27T23:20:36.034Z,2.73
2022-12-27T23:23:38.899Z,2.72
2022-12-27T23:26:41.136Z,2.72
2022-12-27T23:29:42.714Z,2.69
2022-12-27T23:32:44.246Z,2.70
2022-12-27T23:35:45.768Z,2.69
2022-12-27T23:38:49.172Z,2.69
2022-12-27T23:41:50.692Z,2.66
2022-12-27T23:44:52.630Z,2.64
2022-12-27T23:47:54.253Z,2.66
2022-12-27T23:50:55.850Z,2.63
2022-12-27T23:53:59.406Z,2.64
2022-12-27T23:57:19.988Z,2.64
